Malad City, ID

5:51 PM MDT on May 24, 2015 (GMT -0600)
Middle of city block | | Change Station
CLOSE
Current Station
Personal Weather Station
Location: Malad City, ID
Elevation: 4662 ft
Nearby Weather Stations

Elev 4662 ft 42.20 °N, 112.26 °W | Updated 21 seconds ago

Overcast
Overcast
62.7 °F
Feels Like 62.7 °F
N
9.0
Wind Variable Wind from West
Gusts 21.0 mph

Today
High -- | Low -- °F
--% Chance of Precip.
Yesterday
High -- | Low -- °F
Precip. -- in
6:00 AM 8:52 PM
Waxing Crescent, 43% visible
Pressure 29.80 in
Visibility 10.0 miles
Clouds Clear
Dew Point 52 °F
Humidity 69%
Rainfall 0.00 in
Snow Depth Not available.
UV 6 out of 12
Pollen 5.40 out of 12
Air Quality Not available.
Flu Activity Sporadic
METAR KLGU 242251Z AUTO VRB03KT 10SM CLR 17/08 A2987 RMK AO2 RAB2158E13 SLP090 P0000 T01670078 TSNO

More Conditions Fewer Conditions

Pressure 29.80 in
Visibility 10.0 miles
Clouds Clear
Dew Point 52 °F
Humidity 69%
Rainfall 0.00 in
Snow Depth Not available.
UV 6 out of 12
Pollen 5.40 out of 12
Air Quality Not available.
Flu Activity Sporadic
METAR KLGU 242251Z AUTO VRB03KT 10SM CLR 17/08 A2987 RMK AO2 RAB2158E13 SLP090 P0000 T01670078 TSNO

More Conditions Fewer Conditions

10-Day Weather Forecast

Almanac

Astronomy

May. 24, 2015 Rise Set
Actual Time
Civil Twilight
Nautical Twilight
Astronomical Twilight
Moon
Length of Visible Light
Length of Day
Tomorrow will be .
, % of the Moon is Illuminated

Today's Extremes

State Highs State Lows

Community

WunderPhotos

Upload Photos

1,823,895 photos uploaded!

WunderBlogs® & News

Nearby

Air Quality

  Air Quality AQ Index Pollutant
Not available.

Snow Depth

Station Depth Elevation

Earthquake Activity

City Distance Mag. Time & Date
Minimum magnitude displayed is 2.5.

Coastal Water Temperatures

Place Temperature

Stations

Nearby Weather Stations

Station Location Temp. Windchill Dew Point Humidity Wind Precip. Elev Updated Type